sensor_id;sensor_type;location;lat;lon;timestamp;pressure;altitude;pressure_sealevel;temperature;humidity
43824;BME280;29470;53.550;9.926;2023-05-09T00:04:18;101691.03;;;15.06;43.33
43824;BME280;29470;53.550;9.926;2023-05-09T00:09:21;101689.13;;;15.03;43.30
43824;BME280;29470;53.550;9.926;2023-05-09T00:14:25;101684.53;;;15.12;43.12
43824;BME280;29470;53.550;9.926;2023-05-09T00:19:28;101681.91;;;14.85;43.38
43824;BME280;29470;53.550;9.926;2023-05-09T00:24:31;101677.28;;;14.81;43.24
43824;BME280;29470;53.550;9.926;2023-05-09T00:29:35;101671.66;;;14.75;43.41
43824;BME280;29470;53.550;9.926;2023-05-09T00:34:38;101661.19;;;14.87;43.45
43824;BME280;29470;53.550;9.926;2023-05-09T00:39:41;101658.59;;;14.62;43.67
43824;BME280;29470;53.550;9.926;2023-05-09T00:44:45;101654.97;;;14.85;43.38
43824;BME280;29470;53.550;9.926;2023-05-09T00:49:47;101649.56;;;14.56;43.85
43824;BME280;29470;53.550;9.926;2023-05-09T00:54:51;101641.00;;;14.71;43.54
43824;BME280;29470;53.550;9.926;2023-05-09T00:59:55;101633.94;;;14.82;43.35
43824;BME280;29470;53.550;9.926;2023-05-09T01:04:58;101626.69;;;14.39;44.07
43824;BME280;29470;53.550;9.926;2023-05-09T01:10:08;101617.66;;;14.34;44.13
43824;BME280;29470;53.550;9.926;2023-05-09T01:15:18;101602.75;;;14.31;44.15
43824;BME280;29470;53.550;9.926;2023-05-09T01:20:29;101600.72;;;14.13;44.46
43824;BME280;29470;53.550;9.926;2023-05-09T01:25:49;101587.63;;;14.25;44.44
43824;BME280;29470;53.550;9.926;2023-05-09T01:30:57;101580.19;;;14.18;44.44
43824;BME280;29470;53.550;9.926;2023-05-09T01:36:04;101594.81;;;14.16;44.79
43824;BME280;29470;53.550;9.926;2023-05-09T01:41:10;101581.13;;;14.19;44.66
43824;BME280;29470;53.550;9.926;2023-05-09T01:46:17;101575.53;;;13.87;45.51
43824;BME280;29470;53.550;9.926;2023-05-09T01:51:21;101575.47;;;13.74;45.99
43824;BME280;29470;53.550;9.926;2023-05-09T01:56:26;101585.06;;;14.00;45.38
43824;BME280;29470;53.550;9.926;2023-05-09T02:01:31;101586.81;;;13.62;46.44
43824;BME280;29470;53.550;9.926;2023-05-09T02:06:35;101589.09;;;14.08;45.72
43824;BME280;29470;53.550;9.926;2023-05-09T02:11:38;101592.84;;;14.00;46.02
43824;BME280;29470;53.550;9.926;2023-05-09T02:16:42;101602.09;;;13.83;46.19
43824;BME280;29470;53.550;9.926;2023-05-09T02:21:45;101591.91;;;13.86;46.51
43824;BME280;29470;53.550;9.926;2023-05-09T02:26:48;101582.84;;;13.67;46.94
43824;BME280;29470;53.550;9.926;2023-05-09T02:31:53;101573.81;;;13.62;47.04
43824;BME280;29470;53.550;9.926;2023-05-09T02:36:56;101565.50;;;13.43;47.36
43824;BME280;29470;53.550;9.926;2023-05-09T02:42:04;101564.25;;;13.25;47.69
43824;BME280;29470;53.550;9.926;2023-05-09T02:47:09;101554.34;;;13.20;48.03
43824;BME280;29470;53.550;9.926;2023-05-09T02:52:12;101562.38;;;12.99;48.14
43824;BME280;29470;53.550;9.926;2023-05-09T02:57:15;101553.56;;;13.21;48.17
43824;BME280;29470;53.550;9.926;2023-05-09T03:02:19;101552.25;;;13.39;47.73
43824;BME280;29470;53.550;9.926;2023-05-09T03:07:25;101556.28;;;13.10;48.46
43824;BME280;29470;53.550;9.926;2023-05-09T03:12:28;101552.66;;;13.08;48.58
43824;BME280;29470;53.550;9.926;2023-05-09T03:17:32;101544.16;;;13.23;48.21
43824;BME280;29470;53.550;9.926;2023-05-09T03:22:36;101539.25;;;13.02;49.03
43824;BME280;29470;53.550;9.926;2023-05-09T03:27:41;101534.28;;;12.93;49.35
43824;BME280;29470;53.550;9.926;2023-05-09T03:32:49;101531.69;;;12.81;50.05
43824;BME280;29470;53.550;9.926;2023-05-09T03:37:52;101534.66;;;12.62;50.11
43824;BME280;29470;53.550;9.926;2023-05-09T03:42:55;101529.53;;;12.88;49.94
43824;BME280;29470;53.550;9.926;2023-05-09T03:47:59;101522.69;;;12.88;50.06
43824;BME280;29470;53.550;9.926;2023-05-09T03:53:03;101526.06;;;12.87;50.00
43824;BME280;29470;53.550;9.926;2023-05-09T03:58:10;101518.50;;;12.90;50.23
43824;BME280;29470;53.550;9.926;2023-05-09T04:03:17;101508.69;;;12.74;50.20
43824;BME280;29470;53.550;9.926;2023-05-09T04:08:22;101505.31;;;12.63;50.86
43824;BME280;29470;53.550;9.926;2023-05-09T04:13:25;101499.09;;;12.49;51.40
43824;BME280;29470;53.550;9.926;2023-05-09T04:18:30;101506.88;;;12.49;51.55
43824;BME280;29470;53.550;9.926;2023-05-09T04:23:33;101491.31;;;12.61;51.70
43824;BME280;29470;53.550;9.926;2023-05-09T04:28:36;101491.69;;;13.03;50.70
43824;BME280;29470;53.550;9.926;2023-05-09T04:33:41;101494.91;;;12.75;51.16
43824;BME280;29470;53.550;9.926;2023-05-09T04:38:44;101491.88;;;12.57;51.52
43824;BME280;29470;53.550;9.926;2023-05-09T04:43:51;101497.41;;;12.62;52.29
43824;BME280;29470;53.550;9.926;2023-05-09T04:48:57;101482.28;;;12.68;52.06
43824;BME280;29470;53.550;9.926;2023-05-09T04:54:00;101489.50;;;12.48;52.52
43824;BME280;29470;53.550;9.926;2023-05-09T04:59:06;101479.91;;;12.47;52.73
43824;BME280;29470;53.550;9.926;2023-05-09T05:04:11;101473.81;;;12.71;52.35
43824;BME280;29470;53.550;9.926;2023-05-09T05:09:14;101461.84;;;12.61;52.76
43824;BME280;29470;53.550;9.926;2023-05-09T05:14:17;101465.88;;;12.93;52.17
43824;BME280;29470;53.550;9.926;2023-05-09T05:19:21;101471.75;;;12.90;52.45
43824;BME280;29470;53.550;9.926;2023-05-09T05:24:24;101460.53;;;13.03;52.43
43824;BME280;29470;53.550;9.926;2023-05-09T05:29:30;101456.59;;;13.46;51.61
43824;BME280;29470;53.550;9.926;2023-05-09T05:34:34;101453.13;;;13.59;51.28
43824;BME280;29470;53.550;9.926;2023-05-09T05:39:37;101445.44;;;13.60;51.19
43824;BME280;29470;53.550;9.926;2023-05-09T05:44:40;101437.69;;;13.48;51.45
43824;BME280;29470;53.550;9.926;2023-05-09T05:49:47;101436.88;;;13.49;51.69
43824;BME280;29470;53.550;9.926;2023-05-09T05:54:50;101435.22;;;14.69;48.74
43824;BME280;29470;53.550;9.926;2023-05-09T05:59:53;101439.00;;;14.88;48.29
43824;BME280;29470;53.550;9.926;2023-05-09T06:04:57;101428.88;;;15.80;46.65
43824;BME280;29470;53.550;9.926;2023-05-09T06:10:00;101424.00;;;15.56;47.27
43824;BME280;29470;53.550;9.926;2023-05-09T06:15:04;101425.69;;;15.55;46.91
43824;BME280;29470;53.550;9.926;2023-05-09T06:20:13;101420.59;;;15.13;48.00
43824;BME280;29470;53.550;9.926;2023-05-09T06:25:16;101414.78;;;15.32;48.17
43824;BME280;29470;53.550;9.926;2023-05-09T06:30:19;101391.94;;;15.87;47.36
43824;BME280;29470;53.550;9.926;2023-05-09T06:35:28;101377.34;;;16.85;45.02
43824;BME280;29470;53.550;9.926;2023-05-09T06:40:31;101369.97;;;16.61;45.42
43824;BME280;29470;53.550;9.926;2023-05-09T06:45:34;101374.97;;;17.40;43.94
43824;BME280;29470;53.550;9.926;2023-05-09T06:50:38;101361.72;;;17.71;42.84
43824;BME280;29470;53.550;9.926;2023-05-09T06:55:41;101358.69;;;18.34;42.00
43824;BME280;29470;53.550;9.926;2023-05-09T07:00:44;101364.41;;;18.07;42.06
43824;BME280;29470;53.550;9.926;2023-05-09T07:05:49;101357.28;;;19.61;39.69
43824;BME280;29470;53.550;9.926;2023-05-09T07:10:53;101347.78;;;20.98;37.63
43824;BME280;29470;53.550;9.926;2023-05-09T07:15:55;101340.72;;;24.26;32.83
43824;BME280;29470;53.550;9.926;2023-05-09T07:21:00;101334.72;;;25.23;30.82
43824;BME280;29470;53.550;9.926;2023-05-09T07:26:03;101337.63;;;26.52;29.06
43824;BME280;29470;53.550;9.926;2023-05-09T07:31:06;101325.25;;;25.89;29.71
43824;BME280;29470;53.550;9.926;2023-05-09T07:36:11;101314.69;;;27.34;28.13
43824;BME280;29470;53.550;9.926;2023-05-09T07:41:16;101311.16;;;28.79;26.13
43824;BME280;29470;53.550;9.926;2023-05-09T07:46:19;101292.28;;;28.19;26.75
43824;BME280;29470;53.550;9.926;2023-05-09T07:51:36;101277.47;;;29.06;26.60
43824;BME280;29470;53.550;9.926;2023-05-09T07:56:43;101272.66;;;26.90;28.68
43824;BME280;29470;53.550;9.926;2023-05-09T08:01:49;101261.63;;;26.54;29.18
43824;BME280;29470;53.550;9.926;2023-05-09T08:06:53;101259.56;;;25.13;31.17
43824;BME280;29470;53.550;9.926;2023-05-09T08:11:56;101254.38;;;24.25;32.68
43824;BME280;29470;53.550;9.926;2023-05-09T08:16:59;101248.78;;;22.39;35.13
43824;BME280;29470;53.550;9.926;2023-05-09T08:22:03;101236.91;;;21.63;36.49
43824;BME280;29470;53.550;9.926;2023-05-09T08:27:06;101235.53;;;20.22;39.43
43824;BME280;29470;53.550;9.926;2023-05-09T08:32:09;101233.06;;;20.04;39.90
43824;BME280;29470;53.550;9.926;2023-05-09T08:37:14;101232.19;;;20.04;40.21
43824;BME280;29470;53.550;9.926;2023-05-09T08:42:18;101234.63;;;20.22;40.07
43824;BME280;29470;53.550;9.926;2023-05-09T08:47:27;101230.19;;;20.21;40.09
43824;BME280;29470;53.550;9.926;2023-05-09T08:52:32;101227.84;;;21.01;39.15
43824;BME280;29470;53.550;9.926;2023-05-09T08:57:35;101213.78;;;21.01;39.12
43824;BME280;29470;53.550;9.926;2023-05-09T09:02:40;101216.84;;;21.41;38.47
43824;BME280;29470;53.550;9.926;2023-05-09T09:07:45;101201.66;;;21.87;37.25
43824;BME280;29470;53.550;9.926;2023-05-09T09:12:48;101202.91;;;21.16;37.61
43824;BME280;29470;53.550;9.926;2023-05-09T09:17:53;101199.31;;;21.98;36.40
43824;BME280;29470;53.550;9.926;2023-05-09T09:22:59;101190.53;;;22.28;35.95
43824;BME280;29470;53.550;9.926;2023-05-09T09:28:03;101182.56;;;21.94;36.55
43824;BME280;29470;53.550;9.926;2023-05-09T09:33:06;101179.13;;;21.68;36.46
43824;BME280;29470;53.550;9.926;2023-05-09T09:38:10;101172.81;;;21.62;36.53
43824;BME280;29470;53.550;9.926;2023-05-09T09:43:13;101167.03;;;22.05;35.81
43824;BME280;29470;53.550;9.926;2023-05-09T09:48:16;101160.72;;;21.98;36.08
43824;BME280;29470;53.550;9.926;2023-05-09T09:53:21;101152.19;;;22.39;35.45
43824;BME280;29470;53.550;9.926;2023-05-09T09:58:25;101149.78;;;22.47;35.06
43824;BME280;29470;53.550;9.926;2023-05-09T10:03:34;101137.94;;;22.64;34.70
43824;BME280;29470;53.550;9.926;2023-05-09T10:08:38;101137.16;;;22.67;34.57
43824;BME280;29470;53.550;9.926;2023-05-09T10:13:44;101132.66;;;22.32;34.54
43824;BME280;29470;53.550;9.926;2023-05-09T10:19:03;101105.56;;;22.36;34.56
43824;BME280;29470;53.550;9.926;2023-05-09T10:24:12;101105.22;;;22.56;34.30
43824;BME280;29470;53.550;9.926;2023-05-09T10:30:05;101098.22;;;23.30;33.57
43824;BME280;29470;53.550;9.926;2023-05-09T10:35:45;101099.19;;;22.97;33.27
43824;BME280;29470;53.550;9.926;2023-05-09T10:40:51;101082.06;;;23.54;33.07
43824;BME280;29470;53.550;9.926;2023-05-09T10:53:24;101054.03;;;22.83;33.21
43824;BME280;29470;53.550;9.926;2023-05-09T10:58:46;101049.06;;;23.34;32.76
43824;BME280;29470;53.550;9.926;2023-05-09T11:04:05;101040.50;;;23.06;32.58
43824;BME280;29470;53.550;9.926;2023-05-09T11:09:28;101026.38;;;23.04;32.31
43824;BME280;29470;53.550;9.926;2023-05-09T11:14:39;101020.59;;;22.82;32.48
43824;BME280;29470;53.550;9.926;2023-05-09T11:20:00;101015.66;;;22.96;32.70
43824;BME280;29470;53.550;9.926;2023-05-09T11:25:07;100991.88;;;22.93;31.75
43824;BME280;29470;53.550;9.926;2023-05-09T11:30:14;100995.53;;;23.41;31.19
43824;BME280;29470;53.550;9.926;2023-05-09T11:35:18;100974.25;;;23.78;31.16
43824;BME280;29470;53.550;9.926;2023-05-09T11:40:21;100971.34;;;23.64;31.04
43824;BME280;29470;53.550;9.926;2023-05-09T11:45:27;100962.75;;;24.23;30.24
43824;BME280;29470;53.550;9.926;2023-05-09T11:50:30;100961.88;;;24.24;30.35
43824;BME280;29470;53.550;9.926;2023-05-09T11:55:36;100947.09;;;23.87;30.37
43824;BME280;29470;53.550;9.926;2023-05-09T12:00:44;100949.72;;;23.85;30.52
43824;BME280;29470;53.550;9.926;2023-05-09T12:05:47;100940.81;;;23.78;30.37
43824;BME280;29470;53.550;9.926;2023-05-09T12:10:50;100936.56;;;23.41;31.04
43824;BME280;29470;53.550;9.926;2023-05-09T12:16:00;100930.84;;;23.63;30.53
43824;BME280;29470;53.550;9.926;2023-05-09T12:21:03;100922.13;;;23.67;30.02
43824;BME280;29470;53.550;9.926;2023-05-09T12:26:07;100927.28;;;24.10;30.00
43824;BME280;29470;53.550;9.926;2023-05-09T12:31:13;100915.59;;;23.97;30.13
43824;BME280;29470;53.550;9.926;2023-05-09T12:36:16;100911.31;;;24.03;30.29
43824;BME280;29470;53.550;9.926;2023-05-09T12:41:19;100916.59;;;24.03;30.62
43824;BME280;29470;53.550;9.926;2023-05-09T12:46:39;100915.56;;;23.96;30.09
43824;BME280;29470;53.550;9.926;2023-05-09T12:51:47;100911.16;;;23.46;30.64
43824;BME280;29470;53.550;9.926;2023-05-09T12:56:50;100902.34;;;23.94;30.02
43824;BME280;29470;53.550;9.926;2023-05-09T13:01:57;100890.19;;;24.04;29.98
43824;BME280;29470;53.550;9.926;2023-05-09T13:07:06;100884.13;;;24.10;29.84
43824;BME280;29470;53.550;9.926;2023-05-09T13:12:10;100888.81;;;24.28;29.76
43824;BME280;29470;53.550;9.926;2023-05-09T13:17:14;100865.41;;;24.54;29.86
43824;BME280;29470;53.550;9.926;2023-05-09T13:22:17;100863.03;;;24.75;29.57
43824;BME280;29470;53.550;9.926;2023-05-09T13:27:20;100863.53;;;24.47;30.35
43824;BME280;29470;53.550;9.926;2023-05-09T13:32:24;100860.41;;;24.75;29.98
43824;BME280;29470;53.550;9.926;2023-05-09T13:37:27;100854.06;;;24.63;29.93
43824;BME280;29470;53.550;9.926;2023-05-09T13:42:32;100844.47;;;24.70;29.08
43824;BME280;29470;53.550;9.926;2023-05-09T13:47:37;100838.75;;;24.39;29.96
43824;BME280;29470;53.550;9.926;2023-05-09T13:52:39;100838.81;;;24.44;30.10
43824;BME280;29470;53.550;9.926;2023-05-09T13:57:42;100827.53;;;23.95;29.93
43824;BME280;29470;53.550;9.926;2023-05-09T14:02:47;100821.28;;;23.90;30.80
43824;BME280;29470;53.550;9.926;2023-05-09T14:07:50;100815.84;;;23.81;30.66
43824;BME280;29470;53.550;9.926;2023-05-09T14:12:53;100805.75;;;24.10;30.82
43824;BME280;29470;53.550;9.926;2023-05-09T14:17:59;100793.75;;;24.34;30.85
43824;BME280;29470;53.550;9.926;2023-05-09T14:23:02;100800.09;;;23.87;30.54
43824;BME280;29470;53.550;9.926;2023-05-09T14:28:05;100785.06;;;23.83;30.93
43824;BME280;29470;53.550;9.926;2023-05-09T14:33:11;100775.38;;;24.44;30.18
43824;BME280;29470;53.550;9.926;2023-05-09T14:38:14;100772.91;;;23.96;30.42
43824;BME280;29470;53.550;9.926;2023-05-09T14:43:17;100765.00;;;23.94;30.16
43824;BME280;29470;53.550;9.926;2023-05-09T14:48:22;100771.84;;;24.45;29.72
43824;BME280;29470;53.550;9.926;2023-05-09T14:53:25;100751.78;;;23.96;30.30
43824;BME280;29470;53.550;9.926;2023-05-09T14:58:29;100749.47;;;24.16;30.35
43824;BME280;29470;53.550;9.926;2023-05-09T15:03:36;100742.47;;;24.18;30.28
43824;BME280;29470;53.550;9.926;2023-05-09T15:08:39;100728.13;;;24.01;30.29
43824;BME280;29470;53.550;9.926;2023-05-09T15:13:42;100721.47;;;24.31;29.90
43824;BME280;29470;53.550;9.926;2023-05-09T15:18:46;100712.13;;;23.93;30.09
43824;BME280;29470;53.550;9.926;2023-05-09T15:23:49;100706.94;;;23.97;30.18
43824;BME280;29470;53.550;9.926;2023-05-09T15:28:52;100704.84;;;23.75;29.96
43824;BME280;29470;53.550;9.926;2023-05-09T15:33:58;100696.50;;;23.45;30.15
43824;BME280;29470;53.550;9.926;2023-05-09T15:39:02;100689.50;;;23.47;30.44
43824;BME280;29470;53.550;9.926;2023-05-09T15:44:05;100681.31;;;23.30;29.75
43824;BME280;29470;53.550;9.926;2023-05-09T15:49:10;100674.06;;;23.75;29.69
43824;BME280;29470;53.550;9.926;2023-05-09T15:54:13;100682.06;;;23.81;29.08
43824;BME280;29470;53.550;9.926;2023-05-09T15:59:16;100669.28;;;23.49;29.73
43824;BME280;29470;53.550;9.926;2023-05-09T16:04:20;100664.09;;;23.56;30.08
43824;BME280;29470;53.550;9.926;2023-05-09T16:09:23;100660.50;;;23.50;29.45
43824;BME280;29470;53.550;9.926;2023-05-09T16:14:26;100658.59;;;23.40;29.52
43824;BME280;29470;53.550;9.926;2023-05-09T16:19:30;100650.22;;;23.12;29.42
43824;BME280;29470;53.550;9.926;2023-05-09T16:24:36;100652.56;;;23.47;29.21
43824;BME280;29470;53.550;9.926;2023-05-09T16:29:39;100646.63;;;23.65;29.54
43824;BME280;29470;53.550;9.926;2023-05-09T16:34:43;100633.94;;;23.39;29.34
43824;BME280;29470;53.550;9.926;2023-05-09T16:39:46;100622.38;;;23.30;29.79
43824;BME280;29470;53.550;9.926;2023-05-09T16:44:48;100619.38;;;23.09;29.66
43824;BME280;29470;53.550;9.926;2023-05-09T16:49:53;100618.50;;;23.09;29.71
43824;BME280;29470;53.550;9.926;2023-05-09T16:54:55;100617.34;;;22.91;29.40
43824;BME280;29470;53.550;9.926;2023-05-09T16:59:59;100608.00;;;23.12;29.25
43824;BME280;29470;53.550;9.926;2023-05-09T17:05:05;100610.09;;;22.78;29.86
43824;BME280;29470;53.550;9.926;2023-05-09T17:10:08;100604.72;;;22.72;29.90
43824;BME280;29470;53.550;9.926;2023-05-09T17:15:11;100599.19;;;22.56;30.02
43824;BME280;29470;53.550;9.926;2023-05-09T17:20:15;100607.88;;;22.52;29.72
43824;BME280;29470;53.550;9.926;2023-05-09T17:25:19;100595.91;;;22.70;29.74
43824;BME280;29470;53.550;9.926;2023-05-09T17:30:22;100591.47;;;22.69;29.78
43824;BME280;29470;53.550;9.926;2023-05-09T17:35:26;100590.34;;;22.53;29.25
43824;BME280;29470;53.550;9.926;2023-05-09T17:40:29;100591.47;;;22.21;29.81
43824;BME280;29470;53.550;9.926;2023-05-09T17:45:31;100591.09;;;21.99;30.00
43824;BME280;29470;53.550;9.926;2023-05-09T17:50:36;100576.81;;;21.89;29.99
43824;BME280;29470;53.550;9.926;2023-05-09T17:55:40;100576.81;;;22.34;29.88
43824;BME280;29470;53.550;9.926;2023-05-09T18:00:43;100581.69;;;21.69;30.10
43824;BME280;29470;53.550;9.926;2023-05-09T18:05:47;100585.75;;;21.98;29.56
43824;BME280;29470;53.550;9.926;2023-05-09T18:10:51;100583.63;;;21.78;30.01
43824;BME280;29470;53.550;9.926;2023-05-09T18:15:57;100588.63;;;21.66;30.04
43824;BME280;29470;53.550;9.926;2023-05-09T18:21:02;100577.59;;;21.44;29.77
43824;BME280;29470;53.550;9.926;2023-05-09T18:26:06;100589.88;;;21.45;29.96
43824;BME280;29470;53.550;9.926;2023-05-09T18:31:09;100580.97;;;21.00;30.61
43824;BME280;29470;53.550;9.926;2023-05-09T18:36:17;100580.91;;;20.97;30.50
43824;BME280;29470;53.550;9.926;2023-05-09T18:41:21;100578.25;;;20.95;30.34
43824;BME280;29470;53.550;9.926;2023-05-09T18:46:24;100572.38;;;20.70;30.91
43824;BME280;29470;53.550;9.926;2023-05-09T18:51:30;100565.66;;;20.82;30.69
43824;BME280;29470;53.550;9.926;2023-05-09T18:56:34;100575.59;;;20.60;31.29
43824;BME280;29470;53.550;9.926;2023-05-09T19:01:39;100576.22;;;20.50;31.46
43824;BME280;29470;53.550;9.926;2023-05-09T19:06:48;100577.00;;;20.45;31.51
43824;BME280;29470;53.550;9.926;2023-05-09T19:11:51;100580.72;;;20.22;31.69
43824;BME280;29470;53.550;9.926;2023-05-09T19:16:54;100580.22;;;20.35;31.86
43824;BME280;29470;53.550;9.926;2023-05-09T19:21:58;100589.53;;;20.22;32.14
43824;BME280;29470;53.550;9.926;2023-05-09T19:27:01;100585.72;;;20.11;32.20
43824;BME280;29470;53.550;9.926;2023-05-09T19:32:05;100583.59;;;19.97;32.31
43824;BME280;29470;53.550;9.926;2023-05-09T19:37:10;100579.88;;;19.91;32.62
43824;BME280;29470;53.550;9.926;2023-05-09T19:42:16;100582.75;;;20.00;32.64
43824;BME280;29470;53.550;9.926;2023-05-09T19:47:19;100578.25;;;19.94;32.54
43824;BME280;29470;53.550;9.926;2023-05-09T19:52:23;100582.59;;;19.65;32.85
43824;BME280;29470;53.550;9.926;2023-05-09T19:57:26;100584.84;;;19.52;33.11
43824;BME280;29470;53.550;9.926;2023-05-09T20:02:29;100578.81;;;19.55;33.06
43824;BME280;29470;53.550;9.926;2023-05-09T20:07:34;100580.03;;;19.37;33.24
43824;BME280;29470;53.550;9.926;2023-05-09T20:12:37;100580.78;;;19.33;33.31
43824;BME280;29470;53.550;9.926;2023-05-09T20:17:48;100580.09;;;19.39;33.17
43824;BME280;29470;53.550;9.926;2023-05-09T20:22:56;100575.72;;;19.10;33.74
43824;BME280;29470;53.550;9.926;2023-05-09T20:28:01;100568.00;;;19.15;33.60
43824;BME280;29470;53.550;9.926;2023-05-09T20:33:04;100569.72;;;19.14;33.71
43824;BME280;29470;53.550;9.926;2023-05-09T20:38:08;100564.84;;;18.98;34.05
43824;BME280;29470;53.550;9.926;2023-05-09T20:43:11;100568.06;;;18.91;33.91
43824;BME280;29470;53.550;9.926;2023-05-09T20:48:14;100561.66;;;18.81;34.07
43824;BME280;29470;53.550;9.926;2023-05-09T20:53:19;100548.59;;;18.82;34.20
43824;BME280;29470;53.550;9.926;2023-05-09T20:58:22;100539.56;;;18.47;34.89
43824;BME280;29470;53.550;9.926;2023-05-09T21:03:25;100532.66;;;18.49;34.87
43824;BME280;29470;53.550;9.926;2023-05-09T21:08:34;100528.59;;;18.59;34.63
43824;BME280;29470;53.550;9.926;2023-05-09T21:13:37;100531.38;;;18.36;34.82
43824;BME280;29470;53.550;9.926;2023-05-09T21:18:40;100527.53;;;18.52;34.77
43824;BME280;29470;53.550;9.926;2023-05-09T21:23:44;100529.41;;;18.56;35.06
43824;BME280;29470;53.550;9.926;2023-05-09T21:28:47;100527.31;;;18.73;34.66
43824;BME280;29470;53.550;9.926;2023-05-09T21:33:49;100521.16;;;18.71;34.82
43824;BME280;29470;53.550;9.926;2023-05-09T21:38:54;100511.88;;;18.53;35.24
43824;BME280;29470;53.550;9.926;2023-05-09T21:43:57;100510.16;;;18.55;35.38
43824;BME280;29470;53.550;9.926;2023-05-09T21:49:00;100501.03;;;18.43;35.47
43824;BME280;29470;53.550;9.926;2023-05-09T21:54:04;100496.00;;;18.49;35.43
43824;BME280;29470;53.550;9.926;2023-05-09T21:59:07;100492.84;;;18.32;35.73
43824;BME280;29470;53.550;9.926;2023-05-09T22:04:10;100491.81;;;18.28;35.85
43824;BME280;29470;53.550;9.926;2023-05-09T22:09:14;100483.22;;;18.32;35.85
43824;BME280;29470;53.550;9.926;2023-05-09T22:14:17;100484.28;;;18.37;35.43
43824;BME280;29470;53.550;9.926;2023-05-09T22:19:20;100475.44;;;18.34;36.06
43824;BME280;29470;53.550;9.926;2023-05-09T22:24:24;100476.28;;;18.07;36.57
43824;BME280;29470;53.550;9.926;2023-05-09T22:29:27;100469.94;;;18.26;36.18
43824;BME280;29470;53.550;9.926;2023-05-09T22:34:30;100478.81;;;18.30;36.44
43824;BME280;29470;53.550;9.926;2023-05-09T22:39:34;100471.50;;;18.21;36.70
43824;BME280;29470;53.550;9.926;2023-05-09T22:44:37;100473.00;;;17.88;37.47
43824;BME280;29470;53.550;9.926;2023-05-09T22:49:40;100468.38;;;17.81;37.94
43824;BME280;29470;53.550;9.926;2023-05-09T22:54:47;100463.19;;;17.82;38.13
43824;BME280;29470;53.550;9.926;2023-05-09T22:59:50;100458.91;;;17.59;39.02
43824;BME280;29470;53.550;9.926;2023-05-09T23:04:53;100458.69;;;17.78;38.87
43824;BME280;29470;53.550;9.926;2023-05-09T23:09:57;100454.09;;;17.47;39.81
43824;BME280;29470;53.550;9.926;2023-05-09T23:15:01;100448.63;;;17.41;39.98
43824;BME280;29470;53.550;9.926;2023-05-09T23:20:05;100439.31;;;17.47;39.96
43824;BME280;29470;53.550;9.926;2023-05-09T23:25:09;100446.19;;;17.70;39.88
43824;BME280;29470;53.550;9.926;2023-05-09T23:30:12;100436.38;;;17.38;40.74
43824;BME280;29470;53.550;9.926;2023-05-09T23:35:15;100435.63;;;17.42;41.05
43824;BME280;29470;53.550;9.926;2023-05-09T23:40:21;100438.88;;;17.35;41.51
43824;BME280;29470;53.550;9.926;2023-05-09T23:45:24;100436.28;;;17.12;41.86
43824;BME280;29470;53.550;9.926;2023-05-09T23:50:27;100432.56;;;17.30;41.92
43824;BME280;29470;53.550;9.926;2023-05-09T23:55:31;100423.84;;;17.06;42.38
